createdAt,value
2019-05-14T00:02:07.053Z,100953.89
2019-05-14T00:04:38.897Z,100947.84
2019-05-14T00:07:11.557Z,100946.33
2019-05-14T00:09:44.455Z,100952.72
2019-05-14T00:12:16.160Z,100943.27
2019-05-14T00:14:48.180Z,100951.83
2019-05-14T00:17:21.436Z,100944.92
2019-05-14T00:20:06.500Z,100947.12
2019-05-14T00:22:26.834Z,100950.02
2019-05-14T00:25:01.042Z,100953.02
2019-05-14T00:27:32.349Z,100948.97
2019-05-14T00:30:06.307Z,100942.68
2019-05-14T00:32:37.964Z,100938.87
2019-05-14T00:35:11.083Z,100948.38
2019-05-14T00:37:44.227Z,100952.37
2019-05-14T00:40:15.773Z,100948.20
2019-05-14T00:42:47.306Z,100947.27
2019-05-14T00:45:18.833Z,100953.84
2019-05-14T00:47:52.492Z,100950.05
2019-05-14T00:50:25.286Z,100946.53
2019-05-14T00:52:57.296Z,100945.59
2019-05-14T00:55:28.991Z,100945.59
2019-05-14T00:58:02.418Z,100948.03
2019-05-14T01:00:34.273Z,100945.51
2019-05-14T01:03:05.951Z,100943.56
2019-05-14T01:05:37.901Z,100939.17
2019-05-14T01:08:12.055Z,100939.22
2019-05-14T01:10:43.546Z,100941.58
2019-05-14T01:13:15.507Z,100941.42
2019-05-14T01:15:47.403Z,100941.27
2019-05-14T01:18:19.244Z,100941.44
2019-05-14T01:20:51.882Z,100943.18
2019-05-14T01:23:23.703Z,100950.51
2019-05-14T01:25:56.315Z,100943.06
2019-05-14T01:28:28.073Z,100952.63
2019-05-14T01:31:01.140Z,100944.89
2019-05-14T01:33:34.004Z,100951.11
2019-05-14T01:36:05.871Z,100951.98
2019-05-14T01:38:37.812Z,100955.61
2019-05-14T01:41:11.833Z,100957.36
2019-05-14T01:43:43.020Z,100957.02
2019-05-14T01:46:15.257Z,100955.03
2019-05-14T01:48:46.724Z,100952.54
2019-05-14T01:51:22.186Z,100951.72
2019-05-14T01:53:53.597Z,100952.33
2019-05-14T01:56:25.480Z,100953.15
2019-05-14T01:58:57.166Z,100947.75
2019-05-14T02:01:31.341Z,100954.67
2019-05-14T02:04:02.618Z,100950.23
2019-05-14T02:06:34.363Z,100950.52
2019-05-14T02:09:07.501Z,100948.17
2019-05-14T02:11:41.296Z,100948.46
2019-05-14T02:14:12.649Z,100945.89
2019-05-14T02:16:44.525Z,100939.80
2019-05-14T02:19:16.211Z,100944.14
2019-05-14T02:21:48.060Z,100937.38
2019-05-14T02:24:21.807Z,100939.28
2019-05-14T02:26:53.555Z,100941.56
2019-05-14T02:29:25.663Z,100948.16
2019-05-14T02:31:58.983Z,100936.78
2019-05-14T02:34:30.965Z,100939.22
2019-05-14T02:37:02.849Z,100941.22
2019-05-14T02:39:34.842Z,100932.88
2019-05-14T02:42:09.538Z,100932.03
2019-05-14T02:44:41.136Z,100931.75
2019-05-14T02:47:13.002Z,100930.17
2019-05-14T02:49:44.894Z,100928.33
2019-05-14T02:52:20.091Z,100928.77
2019-05-14T02:54:50.657Z,100907.87
2019-05-14T02:57:22.424Z,100924.83
2019-05-14T02:59:54.648Z,100924.13
2019-05-14T03:02:29.463Z,100921.05
2019-05-14T03:04:59.988Z,100924.11
2019-05-14T03:07:31.568Z,100923.16
2019-05-14T03:10:03.940Z,100922.03
2019-05-14T03:12:34.897Z,100919.30
2019-05-14T03:15:10.131Z,100917.89
2019-05-14T03:17:41.822Z,100920.55
2019-05-14T03:20:13.689Z,100924.45
2019-05-14T03:23:01.466Z,100925.02
2019-05-14T03:25:19.827Z,100927.16
2019-05-14T03:27:51.789Z,100922.27
2019-05-14T03:30:23.701Z,100921.02
2019-05-14T03:32:55.562Z,100923.94
2019-05-14T03:35:40.072Z,100915.36
2019-05-14T03:38:00.727Z,100920.63
2019-05-14T03:40:32.419Z,100923.69
2019-05-14T03:43:04.282Z,100918.22
2019-05-14T03:45:38.915Z,100914.19
2019-05-14T03:48:10.405Z,100914.06
2019-05-14T03:50:42.075Z,100907.59
2019-05-14T03:53:15.064Z,100913.48
2019-05-14T03:55:49.930Z,100909.89
2019-05-14T03:58:21.518Z,100914.17
2019-05-14T04:00:59.847Z,100916.86
2019-05-14T04:03:31.964Z,100909.59
2019-05-14T04:06:04.191Z,100914.41
2019-05-14T04:08:39.174Z,100922.88
2019-05-14T04:11:11.476Z,100921.94
2019-05-14T04:13:49.437Z,100927.22
2019-05-14T04:16:22.190Z,100923.19
2019-05-14T04:18:54.860Z,100923.49
2019-05-14T04:21:29.806Z,100930.52
2019-05-14T04:24:03.885Z,100931.91
2019-05-14T04:26:53.094Z,100935.13
2019-05-14T04:29:13.829Z,100934.11
2019-05-14T04:31:50.341Z,100934.40
2019-05-14T04:34:23.244Z,100922.29
2019-05-14T04:36:54.983Z,100929.22
2019-05-14T04:39:30.418Z,100923.03
2019-05-14T04:42:00.405Z,100920.81
2019-05-14T04:44:32.060Z,100924.20
2019-05-14T04:47:21.460Z,100919.41
2019-05-14T04:49:39.869Z,100924.22
2019-05-14T04:52:10.484Z,100920.23
2019-05-14T04:54:41.980Z,100921.76
2019-05-14T04:57:13.913Z,100923.36
2019-05-14T04:59:49.127Z,100918.75
2019-05-14T05:02:20.078Z,100915.30
2019-05-14T05:04:52.017Z,100918.06
2019-05-14T05:07:23.780Z,100915.14
2019-05-14T05:09:55.462Z,100922.78
2019-05-14T05:12:29.620Z,100924.81
2019-05-14T05:15:00.567Z,100925.77
2019-05-14T05:17:44.321Z,100928.70
2019-05-14T05:20:09.873Z,100929.45
2019-05-14T05:22:40.666Z,100927.93
2019-05-14T05:25:12.738Z,100921.10
2019-05-14T05:27:44.473Z,100927.28
2019-05-14T05:30:16.193Z,100930.30
2019-05-14T05:32:49.406Z,100928.62
2019-05-14T05:35:21.397Z,100929.02
2019-05-14T05:37:53.352Z,100936.58
2019-05-14T05:40:24.857Z,100936.23
2019-05-14T05:42:58.101Z,100935.05
2019-05-14T05:45:29.856Z,100937.72
2019-05-14T05:48:02.017Z,100941.69
2019-05-14T05:50:33.625Z,100937.53
2019-05-14T05:53:05.276Z,100932.55
2019-05-14T05:55:39.265Z,100927.69
2019-05-14T05:58:10.478Z,100933.55
2019-05-14T06:00:43.838Z,100932.44
2019-05-14T06:03:15.548Z,100932.72
2019-05-14T06:05:50.416Z,100935.25
2019-05-14T06:08:22.370Z,100933.46
2019-05-14T06:10:54.399Z,100929.88
2019-05-14T06:13:28.697Z,100930.85
2019-05-14T06:16:00.772Z,100924.39
2019-05-14T06:18:34.991Z,100920.66
2019-05-14T06:21:08.944Z,100918.52
2019-05-14T06:23:39.972Z,100921.50
2019-05-14T06:26:11.970Z,100917.28
2019-05-14T06:28:44.012Z,100914.00
2019-05-14T06:31:15.647Z,100905.69
2019-05-14T06:33:48.629Z,100916.97
2019-05-14T06:36:21.005Z,100915.71
2019-05-14T06:38:54.704Z,100921.58
2019-05-14T06:41:28.363Z,100919.62
2019-05-14T06:43:59.787Z,100921.39
2019-05-14T06:46:31.794Z,100914.03
2019-05-14T06:49:04.980Z,100922.89
2019-05-14T06:51:39.323Z,100916.50
2019-05-14T06:54:10.162Z,100913.64
2019-05-14T06:56:42.222Z,100916.78
2019-05-14T06:59:18.012Z,100919.59
2019-05-14T07:01:49.129Z,100917.42
2019-05-14T07:04:21.301Z,100914.52
2019-05-14T07:06:53.191Z,100908.53
2019-05-14T07:09:25.486Z,100912.63
2019-05-14T07:11:58.507Z,100909.59
2019-05-14T07:14:30.511Z,100914.78
2019-05-14T07:17:02.301Z,100906.39
2019-05-14T07:19:33.969Z,100905.23
2019-05-14T07:22:08.724Z,100900.91
2019-05-14T07:24:40.674Z,100894.71
2019-05-14T07:27:12.816Z,100890.13
2019-05-14T07:29:44.793Z,100886.27
2019-05-14T07:32:19.117Z,100880.16
2019-05-14T07:34:52.296Z,100882.23
2019-05-14T07:37:24.369Z,100875.27
2019-05-14T07:39:58.018Z,100873.03
2019-05-14T07:42:30.677Z,100863.80
2019-05-14T07:45:02.439Z,100859.00
2019-05-14T07:47:34.211Z,100866.08
2019-05-14T07:50:47.721Z,100843.28
2019-05-14T07:53:18.023Z,100855.80
2019-05-14T07:55:49.609Z,100860.04
2019-05-14T07:58:21.711Z,100857.36
2019-05-14T08:01:43.692Z,100849.60
2019-05-14T08:04:17.869Z,100851.92
2019-05-14T08:06:49.098Z,100856.34
2019-05-14T08:09:21.000Z,100843.40
2019-05-14T08:11:53.083Z,100847.05
2019-05-14T08:14:24.689Z,100850.69
2019-05-14T08:16:59.320Z,100846.89
2019-05-14T08:19:32.639Z,100841.85
2019-05-14T08:22:03.970Z,100834.66
2019-05-14T08:24:35.548Z,100831.48
2019-05-14T08:27:08.562Z,100836.75
2019-05-14T08:29:40.288Z,100833.34
2019-05-14T08:32:12.190Z,100830.84
2019-05-14T08:34:44.177Z,100829.94
2019-05-14T08:37:15.284Z,100830.45
2019-05-14T08:39:48.697Z,100836.44
2019-05-14T08:42:20.162Z,100836.38
2019-05-14T08:44:52.135Z,100837.72
2019-05-14T08:47:23.725Z,100834.95
2019-05-14T08:49:55.168Z,100835.11
2019-05-14T08:52:28.835Z,100837.58
2019-05-14T08:55:10.172Z,100829.67
2019-05-14T08:57:35.397Z,100835.80
2019-05-14T09:00:13.742Z,100832.61
2019-05-14T09:02:41.204Z,100827.93
2019-05-14T09:05:13.045Z,100829.05
2019-05-14T09:07:44.647Z,100830.81
2019-05-14T09:10:19.063Z,100820.73
2019-05-14T09:12:49.723Z,100821.95
2019-05-14T09:15:21.924Z,100818.91
2019-05-14T09:17:53.467Z,100821.75
2019-05-14T09:20:25.505Z,100828.23
2019-05-14T09:22:59.503Z,100825.88
2019-05-14T09:25:30.784Z,100817.34
2019-05-14T09:28:02.654Z,100820.41
2019-05-14T09:30:34.568Z,100811.69
2019-05-14T09:33:08.652Z,100815.30
2019-05-14T09:35:39.772Z,100805.38
2019-05-14T09:38:11.061Z,100808.44
2019-05-14T09:40:42.809Z,100818.06
2019-05-14T09:43:14.367Z,100805.66
2019-05-14T09:45:48.019Z,100811.36
2019-05-14T09:48:19.319Z,100801.12
2019-05-14T09:50:51.425Z,100797.02
2019-05-14T09:53:22.448Z,100805.36
2019-05-14T09:55:54.246Z,100800.56
2019-05-14T09:58:28.184Z,100816.83
2019-05-14T10:00:59.765Z,100814.16
2019-05-14T10:03:34.595Z,100813.48
2019-05-14T10:06:09.460Z,100811.97
2019-05-14T10:08:39.419Z,100807.07
2019-05-14T10:11:10.866Z,100801.22
2019-05-14T10:13:42.380Z,100801.52
2019-05-14T10:16:18.895Z,100795.67
2019-05-14T10:18:52.736Z,100792.78
2019-05-14T10:21:23.985Z,100794.09
2019-05-14T10:23:55.666Z,100793.88
2019-05-14T10:26:28.853Z,100785.39
2019-05-14T10:29:01.074Z,100793.36
2019-05-14T10:31:32.935Z,100790.61
2019-05-14T10:34:04.682Z,100786.00
2019-05-14T10:36:36.302Z,100786.66
2019-05-14T10:39:09.399Z,100791.65
2019-05-14T10:41:41.104Z,100786.72
2019-05-14T10:44:12.654Z,100787.39
2019-05-14T10:46:44.315Z,100791.53
2019-05-14T10:49:20.559Z,100794.64
2019-05-14T10:51:48.039Z,100793.11
2019-05-14T10:54:25.208Z,100800.88
2019-05-14T10:56:54.292Z,100792.14
2019-05-14T10:59:26.268Z,100791.24
2019-05-14T11:01:58.031Z,100795.26
2019-05-14T11:04:29.622Z,100788.52
2019-05-14T11:07:02.383Z,100795.67
2019-05-14T11:09:34.279Z,100801.73
2019-05-14T11:12:06.021Z,100804.48
2019-05-14T11:14:38.679Z,100806.91
2019-05-14T11:17:11.916Z,100806.06
2019-05-14T11:19:43.596Z,100809.42
2019-05-14T11:22:18.246Z,100801.77
2019-05-14T11:24:49.249Z,100795.75
2019-05-14T11:27:21.425Z,100793.77
2019-05-14T11:29:53.288Z,100790.77
2019-05-14T11:32:24.566Z,100781.89
2019-05-14T11:34:55.943Z,100781.70
2019-05-14T11:37:28.220Z,100780.88
2019-05-14T11:40:00.579Z,100776.47
2019-05-14T11:42:32.425Z,100781.69
2019-05-14T11:45:05.277Z,100780.33
2019-05-14T11:47:38.051Z,100778.09
2019-05-14T11:50:11.127Z,100776.19
2019-05-14T11:52:43.204Z,100774.81
2019-05-14T11:55:14.432Z,100775.63
2019-05-14T11:57:45.826Z,100772.02
2019-05-14T12:00:19.534Z,100769.27
2019-05-14T12:02:51.699Z,100767.52
2019-05-14T12:05:22.572Z,100771.12
2019-05-14T12:07:54.205Z,100760.92
2019-05-14T12:10:29.111Z,100759.62
2019-05-14T12:13:00.149Z,100760.20
2019-05-14T12:15:31.712Z,100756.55
2019-05-14T12:18:03.402Z,100752.13
2019-05-14T12:20:34.993Z,100741.94
2019-05-14T12:23:08.866Z,100745.23
2019-05-14T12:25:40.181Z,100736.13
2019-05-14T12:28:13.549Z,100741.91
2019-05-14T12:30:45.408Z,100747.45
2019-05-14T12:33:19.828Z,100741.68
2019-05-14T12:35:51.413Z,100735.41
2019-05-14T12:38:23.415Z,100737.36
2019-05-14T12:40:55.259Z,100738.16
2019-05-14T12:43:28.253Z,100730.16
2019-05-14T12:46:00.256Z,100728.27
2019-05-14T12:48:32.065Z,100730.18
2019-05-14T12:51:03.580Z,100731.83
2019-05-14T12:53:35.317Z,100733.73
2019-05-14T12:56:08.596Z,100740.62
2019-05-14T12:58:45.443Z,100740.10
2019-05-14T13:01:14.814Z,100749.20
2019-05-14T13:03:48.486Z,100743.67
2019-05-14T13:06:19.842Z,100744.23
2019-05-14T13:08:51.619Z,100738.15
2019-05-14T13:11:22.413Z,100738.13
2019-05-14T13:13:54.089Z,100733.75
2019-05-14T13:16:25.584Z,100728.78
2019-05-14T13:18:59.738Z,100722.16
2019-05-14T13:21:30.496Z,100732.94
2019-05-14T13:24:02.135Z,100727.98
2019-05-14T13:26:33.907Z,100731.01
2019-05-14T13:29:08.184Z,100728.79
2019-05-14T13:31:39.092Z,100726.58
2019-05-14T13:34:10.826Z,100722.19
2019-05-14T13:36:44.918Z,100722.75
2019-05-14T13:39:19.213Z,100718.90
2019-05-14T13:41:49.806Z,100709.25
2019-05-14T13:44:24.990Z,100710.36
2019-05-14T13:46:54.903Z,100715.58
2019-05-14T13:49:29.236Z,100711.71
2019-05-14T13:51:59.798Z,100706.72
2019-05-14T13:54:31.999Z,100713.33
2019-05-14T13:57:03.504Z,100705.33
2019-05-14T13:59:35.136Z,100712.45
2019-05-14T14:02:09.593Z,100707.75
2019-05-14T14:04:39.495Z,100703.34
2019-05-14T14:07:11.574Z,100715.17
2019-05-14T14:09:43.511Z,100716.50
2019-05-14T14:12:15.170Z,100709.91
2019-05-14T14:14:49.377Z,100716.17
2019-05-14T14:17:20.266Z,100712.00
2019-05-14T14:19:51.940Z,100718.89
2019-05-14T14:22:23.441Z,100712.86
2019-05-14T14:24:55.404Z,100709.55
2019-05-14T14:27:29.952Z,100725.24
2019-05-14T14:30:00.329Z,100719.45
2019-05-14T14:32:32.252Z,100709.80
2019-05-14T14:35:04.080Z,100707.03
2019-05-14T14:37:35.853Z,100707.30
2019-05-14T14:40:09.926Z,100706.72
2019-05-14T14:42:41.394Z,100711.64
2019-05-14T14:45:13.629Z,100708.30
2019-05-14T14:47:44.373Z,100715.17
2019-05-14T14:50:19.195Z,100718.73
2019-05-14T14:52:49.796Z,100725.11
2019-05-14T14:55:21.806Z,100726.78
2019-05-14T14:57:55.229Z,100728.95
2019-05-14T15:00:29.371Z,100704.64
2019-05-14T15:03:00.687Z,100740.20
2019-05-14T15:05:32.687Z,100740.47
2019-05-14T15:08:04.506Z,100744.19
2019-05-14T15:10:36.048Z,100744.19
2019-05-14T15:13:09.305Z,100746.91
2019-05-14T15:15:40.967Z,100743.04
2019-05-14T15:18:14.144Z,100744.31
2019-05-14T15:20:48.675Z,100736.02
2019-05-14T15:23:19.546Z,100735.47
2019-05-14T15:25:52.851Z,100743.92
2019-05-14T15:28:24.610Z,100745.81
2019-05-14T15:30:56.009Z,100738.91
2019-05-14T15:33:29.420Z,100737.48
2019-05-14T15:36:01.515Z,100737.73
2019-05-14T15:38:33.190Z,100732.16
2019-05-14T15:41:04.657Z,100739.22
2019-05-14T15:43:39.255Z,100731.44
2019-05-14T15:46:09.887Z,100732.45
2019-05-14T15:48:41.574Z,100731.23
2019-05-14T15:51:15.065Z,100731.99
2019-05-14T15:54:05.521Z,100728.02
2019-05-14T15:56:19.679Z,100733.14
2019-05-14T15:58:51.467Z,100729.77
2019-05-14T16:01:23.289Z,100732.13
2019-05-14T16:03:55.051Z,100732.17
2019-05-14T16:06:26.807Z,100738.06
2019-05-14T16:08:59.085Z,100735.10
2019-05-14T16:11:31.074Z,100733.38
2019-05-14T16:14:03.002Z,100733.56
2019-05-14T16:16:34.593Z,100733.98
2019-05-14T16:19:08.230Z,100733.88
2019-05-14T16:21:39.934Z,100739.27
2019-05-14T16:24:11.674Z,100738.39
2019-05-14T16:26:43.339Z,100733.94
2019-05-14T16:29:15.192Z,100736.92
2019-05-14T16:31:48.717Z,100734.92
2019-05-14T16:34:20.580Z,100736.18
2019-05-14T16:36:53.034Z,100730.77
2019-05-14T16:39:24.695Z,100727.62
2019-05-14T16:41:58.297Z,100735.64
2019-05-14T16:44:30.060Z,100734.97
2019-05-14T16:47:01.692Z,100746.86
2019-05-14T16:49:34.200Z,100749.22
2019-05-14T16:52:08.865Z,100752.92
2019-05-14T16:54:40.007Z,100722.20
2019-05-14T16:57:12.009Z,100743.39
2019-05-14T16:59:43.879Z,100754.30
2019-05-14T17:02:15.432Z,100754.67
2019-05-14T17:04:48.323Z,100751.22
2019-05-14T17:07:20.135Z,100745.71
2019-05-14T17:09:52.030Z,100754.06
2019-05-14T17:12:23.781Z,100758.14
2019-05-14T17:14:58.543Z,100760.34
2019-05-14T17:17:28.792Z,100760.64
2019-05-14T17:20:00.874Z,100768.37
2019-05-14T17:22:33.914Z,100775.54
2019-05-14T17:25:09.050Z,100768.71
2019-05-14T17:27:39.945Z,100769.06
2019-05-14T17:30:12.054Z,100759.51
2019-05-14T17:32:43.719Z,100770.20
2019-05-14T17:35:15.288Z,100775.97
2019-05-14T17:37:48.338Z,100775.08
2019-05-14T17:40:21.040Z,100772.06
2019-05-14T17:42:52.692Z,100777.76
2019-05-14T17:45:24.466Z,100783.45
2019-05-14T17:47:58.312Z,100790.09
2019-05-14T17:50:29.706Z,100788.14
2019-05-14T17:53:00.991Z,100789.81
2019-05-14T17:55:46.417Z,100794.97
2019-05-14T17:58:12.823Z,100796.20
2019-05-14T18:00:39.575Z,100796.20
2019-05-14T18:03:11.737Z,100787.86
2019-05-14T18:05:42.856Z,100785.29
2019-05-14T18:08:14.938Z,100782.77
2019-05-14T18:10:46.470Z,100785.08
2019-05-14T18:13:18.660Z,100780.54
2019-05-14T18:15:50.488Z,100774.89
2019-05-14T18:18:22.597Z,100781.86
2019-05-14T18:20:54.195Z,100779.00
2019-05-14T18:23:26.097Z,100778.77
2019-05-14T18:26:05.025Z,100778.48
2019-05-14T18:28:31.306Z,100781.91
2019-05-14T18:31:03.641Z,100784.80
2019-05-14T18:33:35.797Z,100794.44
2019-05-14T18:36:08.545Z,100795.48
2019-05-14T18:38:41.214Z,100794.98
2019-05-14T18:41:12.716Z,100787.70
2019-05-14T18:43:45.095Z,100788.38
2019-05-14T18:46:19.264Z,100792.61
2019-05-14T18:48:50.825Z,100795.79
2019-05-14T18:51:22.450Z,100794.43
2019-05-14T18:53:54.854Z,100783.23
2019-05-14T18:56:25.950Z,100789.06
2019-05-14T18:58:57.465Z,100789.42
2019-05-14T19:01:29.280Z,100794.00
2019-05-14T19:04:01.062Z,100795.87
2019-05-14T19:06:32.948Z,100793.91
2019-05-14T19:09:05.711Z,100795.22
2019-05-14T19:11:38.692Z,100790.89
2019-05-14T19:14:10.885Z,100793.09
2019-05-14T19:16:43.817Z,100796.87
2019-05-14T19:19:15.745Z,100794.38
2019-05-14T19:21:48.821Z,100792.64
2019-05-14T19:24:20.505Z,100793.68
2019-05-14T19:26:53.241Z,100786.02
2019-05-14T19:29:25.260Z,100787.53
2019-05-14T19:31:56.863Z,100782.49
2019-05-14T19:34:28.831Z,100785.44
2019-05-14T19:37:01.803Z,100789.58
2019-05-14T19:39:34.255Z,100784.28
2019-05-14T19:42:08.625Z,100775.20
2019-05-14T19:44:40.541Z,100778.50
2019-05-14T19:47:12.520Z,100782.30
2019-05-14T19:49:44.548Z,100780.45
2019-05-14T19:52:16.607Z,100784.08
2019-05-14T19:54:49.028Z,100785.34
2019-05-14T19:57:20.441Z,100788.88
2019-05-14T19:59:52.081Z,100778.51
2019-05-14T20:02:23.842Z,100776.39
2019-05-14T20:04:58.670Z,100774.80
2019-05-14T20:07:29.393Z,100773.94
2019-05-14T20:10:01.588Z,100775.34
2019-05-14T20:12:33.409Z,100768.78
2019-05-14T20:15:09.460Z,100766.78
2019-05-14T20:17:40.773Z,100767.32
2019-05-14T20:20:13.386Z,100772.86
2019-05-14T20:22:45.264Z,100777.23
2019-05-14T20:25:18.125Z,100766.57
2019-05-14T20:27:49.919Z,100774.38
2019-05-14T20:30:22.147Z,100773.91
2019-05-14T20:32:54.087Z,100782.64
2019-05-14T20:35:31.663Z,100783.39
2019-05-14T20:37:59.175Z,100783.84
2019-05-14T20:40:31.212Z,100780.41
2019-05-14T20:43:03.243Z,100786.52
2019-05-14T20:45:36.130Z,100789.52
2019-05-14T20:48:08.947Z,100787.02
2019-05-14T20:50:41.141Z,100786.94
2019-05-14T20:53:13.251Z,100782.73
2019-05-14T20:55:44.877Z,100776.84
2019-05-14T20:58:19.920Z,100785.95
2019-05-14T21:00:50.327Z,100784.00
2019-05-14T21:03:22.117Z,100782.86
2019-05-14T21:05:54.255Z,100784.96
2019-05-14T21:08:28.230Z,100779.44
2019-05-14T21:10:59.705Z,100781.14
2019-05-14T21:13:31.463Z,100780.19
2019-05-14T21:16:03.361Z,100779.89
2019-05-14T21:18:35.618Z,100789.51
2019-05-14T21:21:10.912Z,100783.67
2019-05-14T21:23:41.401Z,100783.39
2019-05-14T21:26:13.417Z,100781.02
2019-05-14T21:28:45.075Z,100783.00
2019-05-14T21:31:18.093Z,100783.84
2019-05-14T21:33:49.745Z,100788.98
2019-05-14T21:36:23.738Z,100785.33
2019-05-14T21:38:55.294Z,100793.59
2019-05-14T21:41:28.954Z,100800.69
2019-05-14T21:44:01.382Z,100800.52
2019-05-14T21:46:33.430Z,100795.59
2019-05-14T21:49:05.205Z,100795.80
2019-05-14T21:51:39.217Z,100797.16
2019-05-14T21:54:11.166Z,100795.89
2019-05-14T21:56:43.034Z,100790.38
2019-05-14T21:59:14.633Z,100774.17
2019-05-14T22:01:48.486Z,100774.17
2019-05-14T22:04:20.242Z,100783.17
2019-05-14T22:06:53.533Z,100780.70
2019-05-14T22:09:25.604Z,100775.27
2019-05-14T22:11:58.289Z,100771.78
2019-05-14T22:14:29.935Z,100770.64
2019-05-14T22:17:01.901Z,100772.11
2019-05-14T22:19:33.901Z,100772.32
2019-05-14T22:22:07.886Z,100772.41
2019-05-14T22:24:39.121Z,100777.75
2019-05-14T22:27:11.109Z,100773.97
2019-05-14T22:29:42.830Z,100779.81
2019-05-14T22:32:14.539Z,100779.52
2019-05-14T22:34:49.095Z,100781.20
2019-05-14T22:37:21.040Z,100786.63
2019-05-14T22:39:52.935Z,100786.63
2019-05-14T22:42:24.649Z,100788.17
2019-05-14T22:44:58.334Z,100789.64
2019-05-14T22:47:30.054Z,100786.17
2019-05-14T22:50:02.265Z,100786.92
2019-05-14T22:52:34.082Z,100780.36
2019-05-14T22:55:07.391Z,100778.80
2019-05-14T22:57:39.561Z,100780.15
2019-05-14T23:00:11.438Z,100773.80
2019-05-14T23:02:43.574Z,100747.70
2019-05-14T23:05:15.278Z,100777.00
2019-05-14T23:07:48.533Z,100778.78
2019-05-14T23:10:19.647Z,100780.99
2019-05-14T23:12:50.901Z,100780.25
2019-05-14T23:15:23.642Z,100774.17
2019-05-14T23:17:55.537Z,100773.91
2019-05-14T23:20:28.970Z,100769.05
2019-05-14T23:23:00.904Z,100768.77
2019-05-14T23:25:33.708Z,100769.59
2019-05-14T23:28:05.543Z,100771.37
2019-05-14T23:30:38.779Z,100770.95
2019-05-14T23:33:10.855Z,100767.42
2019-05-14T23:35:42.992Z,100768.86
2019-05-14T23:38:15.506Z,100773.91
2019-05-14T23:40:46.399Z,100763.14
2019-05-14T23:43:18.625Z,100766.59
2019-05-14T23:45:49.496Z,100763.66
2019-05-14T23:48:21.003Z,100757.28
2019-05-14T23:50:53.179Z,100753.50
2019-05-14T23:53:25.336Z,100757.57
2019-05-14T23:55:57.058Z,100764.68
2019-05-14T23:58:29.087Z,100762.06
